Aulander, North Carolina
Current Conditions -  °F | °C
As of 10:35 PM on Saturday 25 Oct 2014 (Local Time) from KASJ Reporting Station
Clear Clear  
Wind Chill: 51°   Ceiling: Unl
Heat Index: 51°   Visibility: 10mi
Dew Point: 47°   Wind: 0mph
Humidity: 85%   Direction: NA
Pressure: 29.85"   Gusts: NA
Location:  36.23°N, 77.11°W
Report Text: KASJ 260235Z AUTO 00000KT 10SM CLR 11/08 A2985 RMK AO2 T01060081
Loading
Personal Weather Stations






























Interactive Weather Map
Tropical Storm Tracking
New forecast layout! Learn more

10-Day Weather Forecast

Advertisements
Track Severe Weather on mobile